createdAt,value
2019-05-09T00:01:34.937Z,10.90
2019-05-09T00:04:04.047Z,10.90
2019-05-09T00:06:34.006Z,10.90
2019-05-09T00:09:05.505Z,10.90
2019-05-09T00:11:34.673Z,10.90
2019-05-09T00:14:04.472Z,11.00
2019-05-09T00:17:03.619Z,10.90
2019-05-09T00:19:10.622Z,11.00
2019-05-09T00:21:44.145Z,11.00
2019-05-09T00:24:13.909Z,11.10
2019-05-09T00:26:44.262Z,11.20
2019-05-09T00:29:15.232Z,11.20
2019-05-09T00:32:03.528Z,11.20
2019-05-09T00:34:40.315Z,11.20
2019-05-09T00:37:09.384Z,11.10
2019-05-09T00:39:38.516Z,11.00
2019-05-09T00:42:07.679Z,11.10
2019-05-09T00:44:50.277Z,11.20
2019-05-09T00:47:24.044Z,11.20
2019-05-09T00:49:54.162Z,11.20
2019-05-09T00:52:23.820Z,11.20
2019-05-09T00:54:53.213Z,11.20
2019-05-09T00:57:34.483Z,11.20
2019-05-09T01:00:08.256Z,11.20
2019-05-09T01:02:37.017Z,11.20
2019-05-09T01:05:06.297Z,11.20
2019-05-09T01:07:35.355Z,11.20
2019-05-09T01:10:06.162Z,11.10
2019-05-09T01:12:35.227Z,11.10
2019-05-09T01:15:06.138Z,11.10
2019-05-09T01:17:35.208Z,11.00
2019-05-09T01:20:06.289Z,11.10
2019-05-09T01:22:35.344Z,11.10
2019-05-09T01:25:05.559Z,11.00
2019-05-09T01:27:34.829Z,10.90
2019-05-09T01:30:05.141Z,11.00
2019-05-09T01:32:38.900Z,11.00
2019-05-09T01:35:07.753Z,11.10
2019-05-09T01:37:36.810Z,11.20
2019-05-09T01:40:07.030Z,11.10
2019-05-09T01:42:36.157Z,11.20
2019-05-09T01:45:07.011Z,11.20
2019-05-09T01:47:36.053Z,11.20
2019-05-09T01:50:05.761Z,11.20
2019-05-09T01:52:34.821Z,11.10
2019-05-09T01:55:04.904Z,11.10
2019-05-09T01:57:33.939Z,11.10
2019-05-09T02:00:04.219Z,11.10
2019-05-09T02:02:33.909Z,11.00
2019-05-09T02:05:04.095Z,11.00
2019-05-09T02:07:33.364Z,11.00
2019-05-09T02:10:03.420Z,11.00
2019-05-09T02:12:33.885Z,11.00
2019-05-09T02:15:04.851Z,11.00
2019-05-09T02:17:55.820Z,11.00
2019-05-09T02:20:13.628Z,11.00
2019-05-09T02:22:43.515Z,10.90
2019-05-09T02:25:13.788Z,10.90
2019-05-09T02:27:43.650Z,10.90
2019-05-09T02:30:15.220Z,10.90
2019-05-09T02:32:45.142Z,11.00
2019-05-09T02:35:14.853Z,11.00
2019-05-09T02:37:43.977Z,11.00
2019-05-09T02:40:13.206Z,10.90
2019-05-09T02:42:42.365Z,10.90
2019-05-09T02:45:11.751Z,10.80
2019-05-09T02:47:40.839Z,10.90
2019-05-09T02:50:10.891Z,10.80
2019-05-09T02:52:40.209Z,10.80
2019-05-09T02:55:30.271Z,10.70
2019-05-09T02:57:59.897Z,10.80
2019-05-09T03:00:30.582Z,10.80
2019-05-09T03:03:10.322Z,10.80
2019-05-09T03:05:39.462Z,10.80
2019-05-09T03:08:09.217Z,10.80
2019-05-09T03:10:38.805Z,10.70
2019-05-09T03:13:09.164Z,10.70
2019-05-09T03:15:39.542Z,10.70
2019-05-09T03:18:09.161Z,10.60
2019-05-09T03:20:43.004Z,10.70
2019-05-09T03:23:11.568Z,10.70
2019-05-09T03:25:41.195Z,10.60
2019-05-09T03:28:12.115Z,10.60
2019-05-09T03:30:51.729Z,10.60
2019-05-09T03:33:20.937Z,10.60
2019-05-09T03:35:50.000Z,10.60
2019-05-09T03:38:19.142Z,10.50
2019-05-09T03:40:48.203Z,10.40
2019-05-09T03:43:18.371Z,10.40
2019-05-09T03:46:01.500Z,10.40
2019-05-09T03:48:32.208Z,10.40
2019-05-09T03:51:01.263Z,10.40
2019-05-09T03:53:30.320Z,10.40
2019-05-09T03:56:01.020Z,10.30
2019-05-09T03:58:30.081Z,10.40
2019-05-09T04:00:59.143Z,10.40
2019-05-09T04:03:28.504Z,10.40
2019-05-09T04:06:02.641Z,10.50
2019-05-09T04:08:28.440Z,10.50
2019-05-09T04:10:58.587Z,10.70
2019-05-09T04:13:54.672Z,10.60
2019-05-09T04:16:23.718Z,10.60
2019-05-09T04:18:52.790Z,10.50
2019-05-09T04:21:21.904Z,10.50
2019-05-09T04:23:51.244Z,10.50
2019-05-09T04:26:27.722Z,10.60
2019-05-09T04:28:57.841Z,10.50
2019-05-09T04:31:28.007Z,10.50
2019-05-09T04:33:57.513Z,10.50
2019-05-09T04:36:38.645Z,10.60
2019-05-09T04:39:12.634Z,10.70
2019-05-09T04:41:40.674Z,10.80
2019-05-09T04:44:16.760Z,10.70
2019-05-09T04:46:42.175Z,10.80
2019-05-09T04:49:11.236Z,10.70
2019-05-09T04:51:40.298Z,10.60
2019-05-09T04:54:09.360Z,10.70
2019-05-09T04:56:40.193Z,10.60
2019-05-09T04:59:09.266Z,10.70
2019-05-09T05:01:42.777Z,10.80
2019-05-09T05:04:11.603Z,11.00
2019-05-09T05:06:40.701Z,10.90
2019-05-09T05:09:09.953Z,10.90
2019-05-09T05:11:39.008Z,10.90
2019-05-09T05:14:09.708Z,10.90
2019-05-09T05:16:39.383Z,10.90
2019-05-09T05:19:08.628Z,10.80
2019-05-09T05:21:37.909Z,11.00
2019-05-09T05:24:18.468Z,11.00
2019-05-09T05:26:48.471Z,11.00
2019-05-09T05:29:17.900Z,11.00
2019-05-09T05:31:47.740Z,11.00
2019-05-09T05:34:21.298Z,11.00
2019-05-09T05:36:49.964Z,11.00
2019-05-09T05:39:19.032Z,11.00
2019-05-09T05:41:48.505Z,11.20
2019-05-09T05:44:17.887Z,11.10
2019-05-09T05:46:54.677Z,11.20
2019-05-09T05:49:23.760Z,11.20
2019-05-09T05:51:52.834Z,11.20
2019-05-09T05:54:22.701Z,11.20
2019-05-09T05:56:51.776Z,11.10
2019-05-09T05:59:20.871Z,11.20
2019-05-09T06:01:49.982Z,11.20
2019-05-09T06:04:19.054Z,11.30
2019-05-09T06:06:48.403Z,11.30
2019-05-09T06:09:18.926Z,11.20
2019-05-09T06:11:48.734Z,11.30
2019-05-09T06:14:18.623Z,11.30
2019-05-09T06:16:48.576Z,11.40
2019-05-09T06:19:18.307Z,11.50
2019-05-09T06:21:54.462Z,11.40
2019-05-09T06:24:23.788Z,11.40
2019-05-09T06:26:52.944Z,11.30
2019-05-09T06:29:21.998Z,11.50
2019-05-09T06:31:51.044Z,11.70
2019-05-09T06:34:20.094Z,12.00
2019-05-09T06:36:49.271Z,12.30
2019-05-09T06:39:18.408Z,12.30
2019-05-09T06:41:48.553Z,12.50
2019-05-09T06:44:20.732Z,12.70
2019-05-09T06:46:54.269Z,13.00
2019-05-09T06:49:29.315Z,13.00
2019-05-09T06:51:57.926Z,13.00
2019-05-09T06:54:27.895Z,12.80
2019-05-09T06:57:13.409Z,12.90
2019-05-09T06:59:42.540Z,12.90
2019-05-09T07:02:25.233Z,12.80
2019-05-09T07:04:58.664Z,12.70
2019-05-09T07:07:34.257Z,12.90
2019-05-09T07:10:07.413Z,13.00
2019-05-09T07:12:37.976Z,13.10
2019-05-09T07:15:08.754Z,13.00
2019-05-09T07:17:38.769Z,12.90
2019-05-09T07:20:14.410Z,12.70
2019-05-09T07:22:45.168Z,12.60
2019-05-09T07:25:21.856Z,12.70
2019-05-09T07:27:50.933Z,12.80
2019-05-09T07:30:29.093Z,13.20
2019-05-09T07:33:19.274Z,13.20
2019-05-09T07:35:48.568Z,13.20
2019-05-09T07:38:19.286Z,13.30
2019-05-09T07:40:48.345Z,13.40
2019-05-09T07:43:17.977Z,13.30
2019-05-09T07:46:05.360Z,13.50
2019-05-09T07:48:37.910Z,13.40
2019-05-09T07:51:07.895Z,13.30
2019-05-09T07:53:38.063Z,13.20
2019-05-09T07:56:08.381Z,13.20
2019-05-09T07:58:37.861Z,13.40
2019-05-09T08:01:08.596Z,13.60
2019-05-09T08:03:38.630Z,14.00
2019-05-09T08:06:08.793Z,14.50
2019-05-09T08:08:38.590Z,14.50
2019-05-09T08:11:08.943Z,14.60
2019-05-09T08:13:39.241Z,14.70
2019-05-09T08:16:14.411Z,14.70
2019-05-09T08:18:39.487Z,14.20
2019-05-09T08:21:08.656Z,14.30
2019-05-09T08:23:38.072Z,14.60
2019-05-09T08:26:08.786Z,14.60
2019-05-09T08:28:39.006Z,14.30
2019-05-09T08:31:09.183Z,14.30
2019-05-09T08:33:38.433Z,14.00
2019-05-09T08:36:08.655Z,13.80
2019-05-09T08:38:39.206Z,13.80
2019-05-09T08:41:10.026Z,13.60
2019-05-09T08:43:40.178Z,13.50
2019-05-09T08:46:10.160Z,13.60
2019-05-09T08:48:39.211Z,13.70
2019-05-09T08:51:09.988Z,13.80
2019-05-09T08:53:39.032Z,13.70
2019-05-09T08:56:09.765Z,14.10
2019-05-09T08:58:38.861Z,14.20
2019-05-09T09:01:09.728Z,14.20
2019-05-09T09:03:38.796Z,14.10
2019-05-09T09:06:08.442Z,13.80
2019-05-09T09:08:38.160Z,13.70
2019-05-09T09:11:08.654Z,13.50
2019-05-09T09:13:38.011Z,13.90
2019-05-09T09:16:15.759Z,14.50
2019-05-09T09:18:38.765Z,14.80
2019-05-09T09:21:08.302Z,14.80
2019-05-09T09:23:44.165Z,14.70
2019-05-09T09:26:08.577Z,14.90
2019-05-09T09:28:38.092Z,15.10
2019-05-09T09:31:08.176Z,15.20
2019-05-09T09:33:37.819Z,15.50
2019-05-09T09:36:08.727Z,15.80
2019-05-09T09:38:38.066Z,15.70
2019-05-09T09:41:07.955Z,15.90
2019-05-09T09:43:38.358Z,15.90
2019-05-09T09:46:14.488Z,15.30
2019-05-09T09:48:38.979Z,15.00
2019-05-09T09:51:09.959Z,15.60
2019-05-09T09:53:39.027Z,15.60
2019-05-09T09:56:08.703Z,15.40
2019-05-09T09:58:38.121Z,15.40
2019-05-09T10:01:28.796Z,15.70
2019-05-09T10:04:15.752Z,15.80
2019-05-09T10:06:30.503Z,15.90
2019-05-09T10:08:59.585Z,15.80
2019-05-09T10:11:28.894Z,15.60
2019-05-09T10:13:58.473Z,15.30
2019-05-09T10:16:32.517Z,15.20
2019-05-09T10:19:01.904Z,15.10
2019-05-09T10:21:32.641Z,15.00
2019-05-09T10:24:01.704Z,14.90
2019-05-09T10:26:30.753Z,14.90
2019-05-09T10:29:01.452Z,14.90
2019-05-09T10:31:30.497Z,14.80
2019-05-09T10:33:59.566Z,15.10
2019-05-09T10:36:28.612Z,15.50
2019-05-09T10:38:58.493Z,15.60
2019-05-09T10:41:27.803Z,15.30
2019-05-09T10:44:08.305Z,15.20
2019-05-09T10:46:52.414Z,15.40
2019-05-09T10:49:10.288Z,16.30
2019-05-09T10:51:39.332Z,16.80
2019-05-09T10:54:08.618Z,17.10
2019-05-09T10:56:38.397Z,17.60
2019-05-09T10:59:08.001Z,17.60
2019-05-09T11:01:38.135Z,17.30
2019-05-09T11:04:08.342Z,17.30
2019-05-09T11:06:38.364Z,17.30
2019-05-09T11:09:09.772Z,17.40
2019-05-09T11:11:38.944Z,17.40
2019-05-09T11:14:08.687Z,16.90
2019-05-09T11:16:45.841Z,17.40
2019-05-09T11:19:08.702Z,17.90
2019-05-09T11:21:39.166Z,17.80
2019-05-09T11:24:08.697Z,17.30
2019-05-09T11:26:39.811Z,17.30
2019-05-09T11:29:08.577Z,17.70
2019-05-09T11:31:38.359Z,17.90
2019-05-09T11:34:08.882Z,18.20
2019-05-09T11:36:38.615Z,18.80
2019-05-09T11:39:10.809Z,18.70
2019-05-09T11:41:39.133Z,18.40
2019-05-09T11:44:08.699Z,18.30
2019-05-09T11:46:38.314Z,17.80
2019-05-09T11:49:08.290Z,17.50
2019-05-09T11:51:37.702Z,17.80
2019-05-09T11:54:09.164Z,17.50
2019-05-09T11:56:38.436Z,17.30
2019-05-09T11:59:08.054Z,17.00
2019-05-09T12:01:39.715Z,16.90
2019-05-09T12:04:08.912Z,17.00
2019-05-09T12:06:38.472Z,17.50
2019-05-09T12:09:29.029Z,17.80
2019-05-09T12:11:58.991Z,18.10
2019-05-09T12:14:28.415Z,17.70
2019-05-09T12:16:57.595Z,17.30
2019-05-09T12:19:29.435Z,17.90
2019-05-09T12:21:58.281Z,17.80
2019-05-09T12:24:29.638Z,18.30
2019-05-09T12:27:02.210Z,18.00
2019-05-09T12:29:29.834Z,17.60
2019-05-09T12:31:58.868Z,17.30
2019-05-09T12:34:27.914Z,17.90
2019-05-09T12:36:58.552Z,17.90
2019-05-09T12:39:27.859Z,17.90
2019-05-09T12:41:57.916Z,18.10
2019-05-09T12:44:28.806Z,17.70
2019-05-09T12:46:58.288Z,18.20
2019-05-09T12:49:28.302Z,18.90
2019-05-09T12:51:58.230Z,18.60
2019-05-09T12:54:28.044Z,18.20
2019-05-09T12:56:59.170Z,18.20
2019-05-09T12:59:28.744Z,18.50
2019-05-09T13:01:58.158Z,18.90
2019-05-09T13:04:28.288Z,19.20
2019-05-09T13:06:58.663Z,19.20
2019-05-09T13:09:28.721Z,19.30
2019-05-09T13:11:57.944Z,18.90
2019-05-09T13:14:28.625Z,18.30
2019-05-09T13:17:02.408Z,18.70
2019-05-09T13:19:38.698Z,18.50
2019-05-09T13:22:08.496Z,18.10
2019-05-09T13:24:37.932Z,18.40
2019-05-09T13:27:07.924Z,18.00
2019-05-09T13:29:38.140Z,17.70
2019-05-09T13:32:08.768Z,17.70
2019-05-09T13:34:38.263Z,18.70
2019-05-09T13:37:09.045Z,18.60
2019-05-09T13:39:39.660Z,18.50
2019-05-09T13:42:09.045Z,18.40
2019-05-09T13:44:41.276Z,17.70
2019-05-09T13:47:10.893Z,17.60
2019-05-09T13:49:39.731Z,17.80
2019-05-09T13:52:10.172Z,17.70
2019-05-09T13:54:39.454Z,18.00
2019-05-09T13:57:09.083Z,18.10
2019-05-09T13:59:38.815Z,18.30
2019-05-09T14:02:07.928Z,18.40
2019-05-09T14:04:39.546Z,18.40
2019-05-09T14:07:08.444Z,18.80
2019-05-09T14:09:38.709Z,19.40
2019-05-09T14:12:09.338Z,19.40
2019-05-09T14:14:38.777Z,19.30
2019-05-09T14:17:08.589Z,19.60
2019-05-09T14:19:45.516Z,19.40
2019-05-09T14:22:09.520Z,19.10
2019-05-09T14:24:38.633Z,18.40
2019-05-09T14:27:08.261Z,18.30
2019-05-09T14:29:38.406Z,18.00
2019-05-09T14:32:07.758Z,17.80
2019-05-09T14:34:38.173Z,17.90
2019-05-09T14:37:09.477Z,17.90
2019-05-09T14:39:43.057Z,17.70
2019-05-09T14:42:09.343Z,17.50
2019-05-09T14:44:38.397Z,17.80
2019-05-09T14:47:08.115Z,17.60
2019-05-09T14:49:43.247Z,17.40
2019-05-09T14:52:08.272Z,18.20
2019-05-09T14:54:39.169Z,18.30
2019-05-09T14:57:09.714Z,18.60
2019-05-09T14:59:38.925Z,19.20
2019-05-09T15:02:09.148Z,19.20
2019-05-09T15:04:38.788Z,18.30
2019-05-09T15:07:07.943Z,18.40
2019-05-09T15:09:37.067Z,18.40
2019-05-09T15:12:06.106Z,17.90
2019-05-09T15:14:35.154Z,18.00
2019-05-09T15:17:04.182Z,17.80
2019-05-09T15:19:33.216Z,17.80
2019-05-09T15:22:02.258Z,18.40
2019-05-09T15:24:31.378Z,18.70
2019-05-09T15:27:00.410Z,19.00
2019-05-09T15:29:29.980Z,19.70
2019-05-09T15:32:04.921Z,19.60
2019-05-09T15:34:29.913Z,19.60
2019-05-09T15:36:58.961Z,19.70
2019-05-09T15:39:30.311Z,19.40
2019-05-09T15:41:59.015Z,18.80
2019-05-09T15:44:28.063Z,18.20
2019-05-09T15:47:01.530Z,17.80
2019-05-09T15:49:30.305Z,17.60
2019-05-09T15:51:59.349Z,17.50
2019-05-09T15:54:29.392Z,17.70
2019-05-09T15:56:58.611Z,18.30
2019-05-09T15:59:28.168Z,18.30
2019-05-09T16:01:58.391Z,18.70
2019-05-09T16:04:28.136Z,18.80
2019-05-09T16:06:57.407Z,19.00
2019-05-09T16:09:28.609Z,19.20
2019-05-09T16:11:57.845Z,19.40
2019-05-09T16:14:27.651Z,19.10
2019-05-09T16:16:57.004Z,18.70
2019-05-09T16:19:26.312Z,18.50
2019-05-09T16:21:55.365Z,18.30
2019-05-09T16:24:24.431Z,18.00
2019-05-09T16:26:53.478Z,18.20
2019-05-09T16:29:22.884Z,18.00
2019-05-09T16:31:51.939Z,18.00
2019-05-09T16:34:20.987Z,17.90
2019-05-09T16:36:50.028Z,17.90
2019-05-09T16:39:19.058Z,17.80
2019-05-09T16:41:48.673Z,17.70
2019-05-09T16:44:18.475Z,17.50
2019-05-09T16:46:48.557Z,17.40
2019-05-09T16:49:19.827Z,17.30
2019-05-09T16:51:48.820Z,17.20
2019-05-09T16:54:18.285Z,17.10
2019-05-09T16:56:47.544Z,17.10
2019-05-09T16:59:17.950Z,17.10
2019-05-09T17:01:50.370Z,17.20
2019-05-09T17:04:19.157Z,17.30
2019-05-09T17:06:49.702Z,17.50
2019-05-09T17:09:19.085Z,17.70
2019-05-09T17:11:48.292Z,17.80
2019-05-09T17:14:19.239Z,17.90
2019-05-09T17:16:48.726Z,18.00
2019-05-09T17:19:19.488Z,17.90
2019-05-09T17:21:50.323Z,17.90
2019-05-09T17:24:23.179Z,17.80
2019-05-09T17:26:52.207Z,17.60
2019-05-09T17:29:21.254Z,17.60
2019-05-09T17:31:50.331Z,17.30
2019-05-09T17:34:19.597Z,17.40
2019-05-09T17:36:48.640Z,17.40
2019-05-09T17:39:18.594Z,17.40
2019-05-09T17:41:47.817Z,17.40
2019-05-09T17:44:18.582Z,17.30
2019-05-09T17:46:48.129Z,17.30
2019-05-09T17:49:17.530Z,17.20
2019-05-09T17:51:48.197Z,17.00
2019-05-09T17:54:18.249Z,16.90
2019-05-09T17:56:48.421Z,16.80
2019-05-09T17:59:18.525Z,16.70
2019-05-09T18:01:48.359Z,16.70
2019-05-09T18:04:37.862Z,16.80
2019-05-09T18:07:08.773Z,16.80
2019-05-09T18:09:38.062Z,16.60
2019-05-09T18:12:08.299Z,16.60
2019-05-09T18:14:38.270Z,16.50
2019-05-09T18:17:07.430Z,16.40
2019-05-09T18:19:38.113Z,16.50
2019-05-09T18:22:08.241Z,16.50
2019-05-09T18:24:37.734Z,16.50
2019-05-09T18:27:07.695Z,16.50
2019-05-09T18:29:37.998Z,16.50
2019-05-09T18:32:27.557Z,16.60
2019-05-09T18:35:16.556Z,16.80
2019-05-09T18:37:47.937Z,16.80
2019-05-09T18:40:18.101Z,16.90
2019-05-09T18:42:47.644Z,16.60
2019-05-09T18:45:17.630Z,16.30
2019-05-09T18:47:48.180Z,16.00
2019-05-09T18:50:17.989Z,15.80
2019-05-09T18:52:47.030Z,15.90
2019-05-09T18:55:16.622Z,15.90
2019-05-09T18:57:45.671Z,15.90
2019-05-09T19:00:17.271Z,15.90
2019-05-09T19:02:46.415Z,15.80
2019-05-09T19:05:16.124Z,15.10
2019-05-09T19:07:45.168Z,14.70
2019-05-09T19:10:32.019Z,15.00
2019-05-09T19:13:00.408Z,15.30
2019-05-09T19:15:42.968Z,15.40
2019-05-09T19:18:19.120Z,15.40
2019-05-09T19:20:52.743Z,15.50
2019-05-09T19:23:21.486Z,15.50
2019-05-09T19:25:50.533Z,15.50
2019-05-09T19:28:19.575Z,15.60
2019-05-09T19:30:48.615Z,15.70
2019-05-09T19:33:17.655Z,15.80
2019-05-09T19:35:46.720Z,15.90
2019-05-09T19:38:15.815Z,15.90
2019-05-09T19:40:44.854Z,15.70
2019-05-09T19:43:13.973Z,15.50
2019-05-09T19:45:43.085Z,15.40
2019-05-09T19:48:12.123Z,15.40
2019-05-09T19:50:41.163Z,15.40
2019-05-09T19:53:10.391Z,15.00
2019-05-09T19:55:39.438Z,14.80
2019-05-09T19:58:08.555Z,14.90
2019-05-09T20:00:37.581Z,15.00
2019-05-09T20:03:06.637Z,14.50
2019-05-09T20:05:35.692Z,14.70
2019-05-09T20:08:04.733Z,14.80
2019-05-09T20:10:51.716Z,14.80
2019-05-09T20:13:25.121Z,14.50
2019-05-09T20:15:54.010Z,14.10
2019-05-09T20:18:23.151Z,14.00
2019-05-09T20:20:52.268Z,13.90
2019-05-09T20:23:21.391Z,14.00
2019-05-09T20:25:50.439Z,14.00
2019-05-09T20:28:19.567Z,14.20
2019-05-09T20:30:48.688Z,14.20
2019-05-09T20:33:17.799Z,14.40
2019-05-09T20:35:46.856Z,14.60
2019-05-09T20:38:16.412Z,14.60
2019-05-09T20:40:45.652Z,14.60
2019-05-09T20:43:14.898Z,14.40
2019-05-09T20:45:44.116Z,14.30
2019-05-09T20:48:13.350Z,14.30
2019-05-09T20:50:44.615Z,14.40
2019-05-09T20:53:13.548Z,14.40
2019-05-09T20:55:42.866Z,14.50
2019-05-09T20:58:12.111Z,14.50
2019-05-09T21:00:41.425Z,14.10
2019-05-09T21:03:10.721Z,13.90
2019-05-09T21:05:40.026Z,13.60
2019-05-09T21:08:09.283Z,13.50
2019-05-09T21:10:38.504Z,13.40
2019-05-09T21:13:07.756Z,13.50
2019-05-09T21:15:36.980Z,13.40
2019-05-09T21:18:06.294Z,13.50
2019-05-09T21:20:35.562Z,13.60
2019-05-09T21:23:04.900Z,13.50
2019-05-09T21:25:34.135Z,13.50
2019-05-09T21:28:03.441Z,13.50
2019-05-09T21:30:32.706Z,13.50
2019-05-09T21:33:01.949Z,13.50
2019-05-09T21:35:31.963Z,13.50
2019-05-09T21:38:01.028Z,13.50
2019-05-09T21:40:30.095Z,13.40
2019-05-09T21:42:59.128Z,13.40
2019-05-09T21:45:28.175Z,13.40
2019-05-09T21:47:57.230Z,13.20
2019-05-09T21:50:26.292Z,13.10
2019-05-09T21:52:55.324Z,13.00
2019-05-09T21:55:24.403Z,13.10
2019-05-09T21:57:53.534Z,13.20
2019-05-09T22:00:29.976Z,13.20
2019-05-09T22:02:59.043Z,13.40
2019-05-09T22:05:28.159Z,13.50
2019-05-09T22:07:57.274Z,13.40
2019-05-09T22:10:26.328Z,13.20
2019-05-09T22:12:55.381Z,13.10
2019-05-09T22:15:24.437Z,13.10
2019-05-09T22:17:53.487Z,12.70
2019-05-09T22:20:22.830Z,12.50
2019-05-09T22:22:51.889Z,12.60
2019-05-09T22:25:21.025Z,12.60
2019-05-09T22:27:50.075Z,12.70
2019-05-09T22:30:19.483Z,12.60
2019-05-09T22:32:48.602Z,12.90
2019-05-09T22:35:17.739Z,12.70
2019-05-09T22:37:46.788Z,12.70
2019-05-09T22:40:16.369Z,12.80
2019-05-09T22:42:45.421Z,12.90
2019-05-09T22:45:15.011Z,12.90
2019-05-09T22:47:44.061Z,13.00
2019-05-09T22:50:13.282Z,13.00
2019-05-09T22:52:42.418Z,13.20
2019-05-09T22:55:11.908Z,13.20
2019-05-09T22:57:40.984Z,13.00
2019-05-09T23:00:10.808Z,13.10
2019-05-09T23:02:39.909Z,13.00
2019-05-09T23:05:09.097Z,12.90
2019-05-09T23:07:38.207Z,12.70
2019-05-09T23:10:07.797Z,12.70
2019-05-09T23:12:36.848Z,12.60
2019-05-09T23:15:08.225Z,12.50
2019-05-09T23:17:37.323Z,12.40
2019-05-09T23:20:09.348Z,12.40
2019-05-09T23:22:38.417Z,12.40
2019-05-09T23:25:07.983Z,12.20
2019-05-09T23:27:37.231Z,12.00
2019-05-09T23:30:08.301Z,11.90
2019-05-09T23:32:56.575Z,11.90
2019-05-09T23:35:25.692Z,11.90
2019-05-09T23:37:54.767Z,11.80
2019-05-09T23:40:23.837Z,11.70
2019-05-09T23:42:52.914Z,11.70
2019-05-09T23:45:22.050Z,11.80
2019-05-09T23:47:51.132Z,11.70
2019-05-09T23:50:20.199Z,11.70
2019-05-09T23:52:49.283Z,11.80
2019-05-09T23:55:36.263Z,11.70
2019-05-09T23:58:23.354Z,11.80
